PWSweather.com
Personal Weather Stations
Station Observations
BARC54
Barcellona Pozzo Di Gotto, Barcellona Pozzo Di GottoIT

Barcellona Pozzo Di GottoBarcellona Pozzo Di GottoIT

Lat: 38.13, Lon: 15.21

Elevation: 54

Station Type: Davis Vantage Pro 2 Wireless

www.barcellonameteo.it

High Low Average
Temperature 84.0°F28.9°C 71.0°F21.7°C 76.9°F24.9°C
Dew Point 67.9°F19.9°C 62.7°F17.1°C 64.6°F18.1°C
Winds 13.0 mph 20.9 kmh Calm Calm 3.0 mph S4.8 kmh S
Wind Gusts 18.0 mph29.0 kmh -- 7.0 mph11.3 kmh
Humidity 76% 53% 66%
Pressure 30.14 in1020.7 mb 30.09 in1019.0 mb -
Precipitation 0.00 in0.0 mm - -
Hour Temp Dew Point Humidity Winds Wind Gusts Pressure Precip Precip Rate Daily Precip Total
12:00 AM 75.5°F24.2°C 65.0°F18.3°C 70% 2.0 mph S3.2 kmh S 8.0 mph12.9 kmh 30.10 in1019.3 mb 0.00 in0.0 mm 0.00 in0.0 mm 0.00 in0.0 mm
12:05 AM 75.4°F24.1°C 64.9°F18.3°C 70% 4.0 mph S6.4 kmh S 8.0 mph12.9 kmh 30.10 in1019.3 mb 0.00 in0.0 mm 0.00 in0.0 mm 0.00 in0.0 mm
12:10 AM 75.3°F24.1°C 65.2°F18.4°C 71% 5.0 mph S8.0 kmh S 5.0 mph8.0 kmh 30.10 in1019.3 mb 0.00 in0.0 mm 0.00 in0.0 mm 0.00 in0.0 mm
12:15 AM 75.3°F24.1°C 65.2°F18.4°C 71% 5.0 mph S8.0 kmh S 7.0 mph11.3 kmh 30.10 in1019.3 mb 0.00 in0.0 mm 0.00 in0.0 mm 0.00 in0.0 mm
12:20 AM 75.3°F24.1°C 65.2°F18.4°C 71% 4.0 mph S6.4 kmh S 9.0 mph14.5 kmh 30.10 in1019.3 mb 0.00 in0.0 mm 0.00 in0.0 mm 0.00 in0.0 mm
12:25 AM 75.2°F24.0°C 65.1°F18.4°C 71% 4.0 mph S6.4 kmh S 7.0 mph11.3 kmh 30.10 in1019.3 mb 0.00 in0.0 mm 0.00 in0.0 mm 0.00 in0.0 mm
12:30 AM 75.2°F24.0°C 65.1°F18.4°C 71% 5.0 mph S8.0 kmh S 6.0 mph9.7 kmh 30.10 in1019.3 mb 0.00 in0.0 mm 0.00 in0.0 mm 0.00 in0.0 mm
12:35 AM 75.1°F23.9°C 65.0°F18.3°C 71% 1.0 mph S1.6 kmh S 7.0 mph11.3 kmh 30.10 in1019.3 mb 0.00 in0.0 mm 0.00 in0.0 mm 0.00 in0.0 mm
12:40 AM 75.1°F23.9°C 65.0°F18.3°C 71% 2.0 mph S3.2 kmh S 12.0 mph19.3 kmh 30.10 in1019.3 mb 0.00 in0.0 mm 0.00 in0.0 mm 0.00 in0.0 mm
12:45 AM 75.0°F23.9°C 64.9°F18.3°C 71% 7.0 mph S11.3 kmh S 9.0 mph14.5 kmh 30.10 in1019.3 mb 0.00 in0.0 mm 0.00 in0.0 mm 0.00 in0.0 mm
12:50 AM 74.9°F23.8°C 64.8°F18.2°C 71% 5.0 mph S8.0 kmh S 9.0 mph14.5 kmh 30.10 in1019.3 mb 0.00 in0.0 mm 0.00 in0.0 mm 0.00 in0.0 mm
12:55 AM 74.8°F23.8°C 65.1°F18.4°C 72% 5.0 mph S8.0 kmh S 8.0 mph12.9 kmh 30.10 in1019.3 mb 0.00 in0.0 mm 0.00 in0.0 mm 0.00 in0.0 mm
01:00 AM 74.6°F23.7°C 64.9°F18.3°C 72% 2.0 mph S3.2 kmh S 5.0 mph8.0 kmh 30.10 in1019.3 mb 0.00 in0.0 mm 0.00 in0.0 mm 0.00 in0.0 mm
01:05 AM 74.5°F23.6°C 64.8°F18.2°C 72% 1.0 mph S1.6 kmh S 7.0 mph11.3 kmh 30.10 in1019.3 mb 0.00 in0.0 mm 0.00 in0.0 mm 0.00 in0.0 mm
01:10 AM 74.5°F23.6°C 64.8°F18.2°C 72% 5.0 mph S8.0 kmh S 8.0 mph12.9 kmh 30.10 in1019.3 mb 0.00 in0.0 mm 0.00 in0.0 mm 0.00 in0.0 mm
01:15 AM 74.4°F23.6°C 65.1°F18.4°C 73% 3.0 mph S4.8 kmh S 5.0 mph8.0 kmh 30.10 in1019.3 mb 0.00 in0.0 mm 0.00 in0.0 mm 0.00 in0.0 mm
01:20 AM 74.3°F23.5°C 65.0°F18.3°C 73% 2.0 mph S3.2 kmh S 5.0 mph8.0 kmh 30.10 in1019.3 mb 0.00 in0.0 mm 0.00 in0.0 mm 0.00 in0.0 mm
01:25 AM 74.2°F23.4°C 64.9°F18.3°C 73% 5.0 mph S8.0 kmh S 5.0 mph8.0 kmh 30.09 in1019.0 mb 0.00 in0.0 mm 0.00 in0.0 mm 0.00 in0.0 mm
01:30 AM 74.2°F23.4°C 64.9°F18.3°C 73% Calm Calm 6.0 mph9.7 kmh 30.09 in1019.0 mb 0.00 in0.0 mm 0.00 in0.0 mm 0.00 in0.0 mm
01:35 AM 73.9°F23.3°C 64.6°F18.1°C 73% Calm Calm 5.0 mph8.0 kmh 30.09 in1019.0 mb 0.00 in0.0 mm 0.00 in0.0 mm 0.00 in0.0 mm
01:40 AM 73.8°F23.2°C 64.5°F18.1°C 73% Calm Calm 1.0 mph1.6 kmh 30.09 in1019.0 mb 0.00 in0.0 mm 0.00 in0.0 mm 0.00 in0.0 mm
01:45 AM 73.6°F23.1°C 64.3°F17.9°C 73% Calm Calm 4.0 mph6.4 kmh 30.10 in1019.3 mb 0.00 in0.0 mm 0.00 in0.0 mm 0.00 in0.0 mm
01:50 AM 73.2°F22.9°C 64.4°F18.0°C 74% 1.0 mph SSE1.6 kmh SSE 4.0 mph6.4 kmh 30.09 in1019.0 mb 0.00 in0.0 mm 0.00 in0.0 mm 0.00 in0.0 mm
01:55 AM 73.0°F22.8°C 64.2°F17.9°C 74% 3.0 mph SE4.8 kmh SE 5.0 mph8.0 kmh 30.09 in1019.0 mb 0.00 in0.0 mm 0.00 in0.0 mm 0.00 in0.0 mm
02:00 AM 72.8°F22.7°C 64.4°F18.0°C 75% Calm Calm 6.0 mph9.7 kmh 30.09 in1019.0 mb 0.00 in0.0 mm 0.00 in0.0 mm 0.00 in0.0 mm
02:05 AM 72.9°F22.7°C 64.1°F17.8°C 74% Calm Calm 3.0 mph4.8 kmh 30.09 in1019.0 mb 0.00 in0.0 mm 0.00 in0.0 mm 0.00 in0.0 mm
02:10 AM 72.9°F22.7°C 64.1°F17.8°C 74% Calm Calm 3.0 mph4.8 kmh 30.09 in1019.0 mb 0.00 in0.0 mm 0.00 in0.0 mm 0.00 in0.0 mm
02:15 AM 72.9°F22.7°C 64.1°F17.8°C 74% Calm Calm 5.0 mph8.0 kmh 30.09 in1019.0 mb 0.00 in0.0 mm 0.00 in0.0 mm 0.00 in0.0 mm
02:20 AM 73.1°F22.8°C 64.3°F17.9°C 74% 5.0 mph SE8.0 kmh SE 8.0 mph12.9 kmh 30.10 in1019.3 mb 0.00 in0.0 mm 0.00 in0.0 mm 0.00 in0.0 mm
02:25 AM 73.3°F22.9°C 64.1°F17.8°C 73% Calm Calm 7.0 mph11.3 kmh 30.09 in1019.0 mb 0.00 in0.0 mm 0.00 in0.0 mm 0.00 in0.0 mm
02:30 AM 73.3°F22.9°C 64.4°F18.0°C 74% Calm Calm 2.0 mph3.2 kmh 30.09 in1019.0 mb 0.00 in0.0 mm 0.00 in0.0 mm 0.00 in0.0 mm
02:35 AM 73.3°F22.9°C 64.4°F18.0°C 74% 2.0 mph SE3.2 kmh SE 2.0 mph3.2 kmh 30.09 in1019.0 mb 0.00 in0.0 mm 0.00 in0.0 mm 0.00 in0.0 mm
02:40 AM 73.4°F23.0°C 64.5°F18.1°C 74% 4.0 mph SSW6.4 kmh SSW 8.0 mph12.9 kmh 30.09 in1019.0 mb 0.00 in0.0 mm 0.00 in0.0 mm 0.00 in0.0 mm
02:45 AM 73.5°F23.1°C 64.2°F17.9°C 73% 5.0 mph SW8.0 kmh SW 7.0 mph11.3 kmh 30.09 in1019.0 mb 0.00 in0.0 mm 0.00 in0.0 mm 0.00 in0.0 mm
02:50 AM 73.5°F23.1°C 64.2°F17.9°C 73% 1.0 mph S1.6 kmh S 5.0 mph8.0 kmh 30.09 in1019.0 mb 0.00 in0.0 mm 0.00 in0.0 mm 0.00 in0.0 mm
02:55 AM 73.1°F22.8°C 63.9°F17.7°C 73% Calm Calm 4.0 mph6.4 kmh 30.09 in1019.0 mb 0.00 in0.0 mm 0.00 in0.0 mm 0.00 in0.0 mm
03:00 AM 72.3°F22.4°C 63.5°F17.5°C 74% 2.0 mph SE3.2 kmh SE 3.0 mph4.8 kmh 30.09 in1019.0 mb 0.00 in0.0 mm 0.00 in0.0 mm 0.00 in0.0 mm
03:05 AM 71.9°F22.2°C 63.5°F17.5°C 75% Calm Calm 2.0 mph3.2 kmh 30.09 in1019.0 mb 0.00 in0.0 mm 0.00 in0.0 mm 0.00 in0.0 mm
03:10 AM 71.6°F22.0°C 63.6°F17.6°C 76% Calm Calm 1.0 mph1.6 kmh 30.09 in1019.0 mb 0.00 in0.0 mm 0.00 in0.0 mm 0.00 in0.0 mm
03:15 AM 71.5°F21.9°C 63.5°F17.5°C 76% Calm Calm 3.0 mph4.8 kmh 30.09 in1019.0 mb 0.00 in0.0 mm 0.00 in0.0 mm 0.00 in0.0 mm
03:20 AM 71.5°F21.9°C 63.5°F17.5°C 76% 2.0 mph SE3.2 kmh SE 2.0 mph3.2 kmh 30.09 in1019.0 mb 0.00 in0.0 mm 0.00 in0.0 mm 0.00 in0.0 mm
03:25 AM 71.5°F21.9°C 63.5°F17.5°C 76% Calm Calm 4.0 mph6.4 kmh 30.09 in1019.0 mb 0.00 in0.0 mm 0.00 in0.0 mm 0.00 in0.0 mm
03:30 AM 71.5°F21.9°C 63.5°F17.5°C 76% Calm Calm -- 30.09 in1019.0 mb 0.00 in0.0 mm 0.00 in0.0 mm 0.00 in0.0 mm
03:35 AM 71.5°F21.9°C 63.5°F17.5°C 76% Calm Calm -- 30.09 in1019.0 mb 0.00 in0.0 mm 0.00 in0.0 mm 0.00 in0.0 mm
03:40 AM 71.5°F21.9°C 63.5°F17.5°C 76% Calm Calm 2.0 mph3.2 kmh 30.09 in1019.0 mb 0.00 in0.0 mm 0.00 in0.0 mm 0.00 in0.0 mm
03:45 AM 71.5°F21.9°C 63.5°F17.5°C 76% Calm Calm -- 30.09 in1019.0 mb 0.00 in0.0 mm 0.00 in0.0 mm 0.00 in0.0 mm
03:50 AM 71.6°F22.0°C 63.6°F17.6°C 76% Calm Calm -- 30.09 in1019.0 mb 0.00 in0.0 mm 0.00 in0.0 mm 0.00 in0.0 mm
03:55 AM 71.6°F22.0°C 63.6°F17.6°C 76% Calm Calm -- 30.09 in1019.0 mb 0.00 in0.0 mm 0.00 in0.0 mm 0.00 in0.0 mm
04:00 AM 71.6°F22.0°C 63.6°F17.6°C 76% Calm Calm -- 30.09 in1019.0 mb 0.00 in0.0 mm 0.00 in0.0 mm 0.00 in0.0 mm
04:05 AM 71.8°F22.1°C 63.8°F17.7°C 76% 2.0 mph S3.2 kmh S 4.0 mph6.4 kmh 30.09 in1019.0 mb 0.00 in0.0 mm 0.00 in0.0 mm 0.00 in0.0 mm
04:10 AM 72.2°F22.3°C 63.8°F17.7°C 75% 2.0 mph SSW3.2 kmh SSW 7.0 mph11.3 kmh 30.09 in1019.0 mb 0.00 in0.0 mm 0.00 in0.0 mm 0.00 in0.0 mm
04:15 AM 72.6°F22.6°C 64.2°F17.9°C 75% 4.0 mph S6.4 kmh S 7.0 mph11.3 kmh 30.09 in1019.0 mb 0.00 in0.0 mm 0.00 in0.0 mm 0.00 in0.0 mm
04:20 AM 72.7°F22.6°C 63.9°F17.7°C 74% 3.0 mph S4.8 kmh S 7.0 mph11.3 kmh 30.09 in1019.0 mb 0.00 in0.0 mm 0.00 in0.0 mm 0.00 in0.0 mm
04:25 AM 72.7°F22.6°C 63.9°F17.7°C 74% 2.0 mph SSE3.2 kmh SSE 5.0 mph8.0 kmh 30.09 in1019.0 mb 0.00 in0.0 mm 0.00 in0.0 mm 0.00 in0.0 mm
04:30 AM 71.9°F22.2°C 62.7°F17.1°C 73% 4.0 mph SE6.4 kmh SE 5.0 mph8.0 kmh 30.09 in1019.0 mb 0.00 in0.0 mm 0.00 in0.0 mm 0.00 in0.0 mm
04:35 AM 71.4°F21.9°C 63.0°F17.2°C 75% 4.0 mph SE6.4 kmh SE 5.0 mph8.0 kmh 30.09 in1019.0 mb 0.00 in0.0 mm 0.00 in0.0 mm 0.00 in0.0 mm
04:40 AM 71.2°F21.8°C 62.8°F17.1°C 75% Calm Calm 3.0 mph4.8 kmh 30.09 in1019.0 mb 0.00 in0.0 mm 0.00 in0.0 mm 0.00 in0.0 mm
04:45 AM 71.1°F21.7°C 63.1°F17.3°C 76% Calm Calm 2.0 mph3.2 kmh 30.09 in1019.0 mb 0.00 in0.0 mm 0.00 in0.0 mm 0.00 in0.0 mm
04:50 AM 71.2°F21.8°C 63.2°F17.3°C 76% Calm Calm 1.0 mph1.6 kmh 30.09 in1019.0 mb 0.00 in0.0 mm 0.00 in0.0 mm 0.00 in0.0 mm
04:55 AM 71.7°F22.1°C 63.7°F17.6°C 76% 3.0 mph SE4.8 kmh SE 4.0 mph6.4 kmh 30.10 in1019.3 mb 0.00 in0.0 mm 0.00 in0.0 mm 0.00 in0.0 mm
05:00 AM 72.2°F22.3°C 63.8°F17.7°C 75% Calm Calm 6.0 mph9.7 kmh 30.10 in1019.3 mb 0.00 in0.0 mm 0.00 in0.0 mm 0.00 in0.0 mm
05:05 AM 72.4°F22.4°C 63.6°F17.6°C 74% 2.0 mph S3.2 kmh S 4.0 mph6.4 kmh 30.10 in1019.3 mb 0.00 in0.0 mm 0.00 in0.0 mm 0.00 in0.0 mm
05:10 AM 72.5°F22.5°C 63.7°F17.6°C 74% Calm Calm 3.0 mph4.8 kmh 30.10 in1019.3 mb 0.00 in0.0 mm 0.00 in0.0 mm 0.00 in0.0 mm
05:15 AM 72.4°F22.4°C 63.6°F17.6°C 74% Calm Calm 3.0 mph4.8 kmh 30.10 in1019.3 mb 0.00 in0.0 mm 0.00 in0.0 mm 0.00 in0.0 mm
05:20 AM 72.1°F22.3°C 63.3°F17.4°C 74% 2.0 mph SSE3.2 kmh SSE 3.0 mph4.8 kmh 30.10 in1019.3 mb 0.00 in0.0 mm 0.00 in0.0 mm 0.00 in0.0 mm
05:25 AM 71.9°F22.2°C 63.5°F17.5°C 75% Calm Calm 2.0 mph3.2 kmh 30.10 in1019.3 mb 0.00 in0.0 mm 0.00 in0.0 mm 0.00 in0.0 mm
05:30 AM 71.7°F22.1°C 63.3°F17.4°C 75% Calm Calm 1.0 mph1.6 kmh 30.10 in1019.3 mb 0.00 in0.0 mm 0.00 in0.0 mm 0.00 in0.0 mm
05:35 AM 71.5°F21.9°C 63.1°F17.3°C 75% Calm Calm -- 30.10 in1019.3 mb 0.00 in0.0 mm 0.00 in0.0 mm 0.00 in0.0 mm
05:40 AM 71.3°F21.8°C 62.9°F17.2°C 75% Calm Calm -- 30.10 in1019.3 mb 0.00 in0.0 mm 0.00 in0.0 mm 0.00 in0.0 mm
05:45 AM 71.2°F21.8°C 62.8°F17.1°C 75% Calm Calm -- 30.10 in1019.3 mb 0.00 in0.0 mm 0.00 in0.0 mm 0.00 in0.0 mm
05:50 AM 71.1°F21.7°C 63.1°F17.3°C 76% 1.0 mph SSE1.6 kmh SSE 1.0 mph1.6 kmh 30.10 in1019.3 mb 0.00 in0.0 mm 0.00 in0.0 mm 0.00 in0.0 mm
05:55 AM 71.0°F21.7°C 63.0°F17.2°C 76% Calm Calm -- 30.11 in1019.6 mb 0.00 in0.0 mm 0.00 in0.0 mm 0.00 in0.0 mm
06:00 AM 71.0°F21.7°C 63.0°F17.2°C 76% Calm Calm 3.0 mph4.8 kmh 30.11 in1019.6 mb 0.00 in0.0 mm 0.00 in0.0 mm 0.00 in0.0 mm
06:05 AM 71.0°F21.7°C 63.0°F17.2°C 76% Calm Calm 3.0 mph4.8 kmh 30.11 in1019.6 mb 0.00 in0.0 mm 0.00 in0.0 mm 0.00 in0.0 mm
06:10 AM 71.0°F21.7°C 63.0°F17.2°C 76% Calm Calm -- 30.11 in1019.6 mb 0.00 in0.0 mm 0.00 in0.0 mm 0.00 in0.0 mm
06:15 AM 71.1°F21.7°C 63.1°F17.3°C 76% 4.0 mph SSW6.4 kmh SSW 5.0 mph8.0 kmh 30.11 in1019.6 mb 0.00 in0.0 mm 0.00 in0.0 mm 0.00 in0.0 mm
06:20 AM 71.9°F22.2°C 63.9°F17.7°C 76% 3.0 mph S4.8 kmh S 10.0 mph16.1 kmh 30.11 in1019.6 mb 0.00 in0.0 mm 0.00 in0.0 mm 0.00 in0.0 mm
06:25 AM 72.7°F22.6°C 64.3°F17.9°C 75% 5.0 mph S8.0 kmh S 10.0 mph16.1 kmh 30.12 in1020.0 mb 0.00 in0.0 mm 0.00 in0.0 mm 0.00 in0.0 mm
06:30 AM 73.0°F22.8°C 63.8°F17.7°C 73% 5.0 mph SE8.0 kmh SE 6.0 mph9.7 kmh 30.11 in1019.6 mb 0.00 in0.0 mm 0.00 in0.0 mm 0.00 in0.0 mm
06:35 AM 72.9°F22.7°C 63.7°F17.6°C 73% Calm Calm 5.0 mph8.0 kmh 30.11 in1019.6 mb 0.00 in0.0 mm 0.00 in0.0 mm 0.00 in0.0 mm
06:40 AM 72.6°F22.6°C 63.4°F17.4°C 73% Calm Calm 2.0 mph3.2 kmh 30.11 in1019.6 mb 0.00 in0.0 mm 0.00 in0.0 mm 0.00 in0.0 mm
06:45 AM 72.6°F22.6°C 63.4°F17.4°C 73% 1.0 mph SE1.6 kmh SE 3.0 mph4.8 kmh 30.12 in1020.0 mb 0.00 in0.0 mm 0.00 in0.0 mm 0.00 in0.0 mm
06:50 AM 72.6°F22.6°C 63.4°F17.4°C 73% Calm Calm 3.0 mph4.8 kmh 30.11 in1019.6 mb 0.00 in0.0 mm 0.00 in0.0 mm 0.00 in0.0 mm
06:55 AM 72.8°F22.7°C 63.6°F17.6°C 73% Calm Calm 1.0 mph1.6 kmh 30.11 in1019.6 mb 0.00 in0.0 mm 0.00 in0.0 mm 0.00 in0.0 mm
07:00 AM 73.2°F22.9°C 64.0°F17.8°C 73% 2.0 mph ESE3.2 kmh ESE 3.0 mph4.8 kmh 30.12 in1020.0 mb 0.00 in0.0 mm 0.00 in0.0 mm 0.00 in0.0 mm
07:05 AM 73.6°F23.1°C 64.0°F17.8°C 72% Calm Calm 3.0 mph4.8 kmh 30.12 in1020.0 mb 0.00 in0.0 mm 0.00 in0.0 mm 0.00 in0.0 mm
07:10 AM 74.1°F23.4°C 64.0°F17.8°C 71% Calm Calm 1.0 mph1.6 kmh 30.12 in1020.0 mb 0.00 in0.0 mm 0.00 in0.0 mm 0.00 in0.0 mm
07:15 AM 74.6°F23.7°C 64.1°F17.8°C 70% 1.0 mph ESE1.6 kmh ESE 2.0 mph3.2 kmh 30.12 in1020.0 mb 0.00 in0.0 mm 0.00 in0.0 mm 0.00 in0.0 mm
07:20 AM 74.9°F23.8°C 64.0°F17.8°C 69% Calm Calm 1.0 mph1.6 kmh 30.12 in1020.0 mb 0.00 in0.0 mm 0.00 in0.0 mm 0.00 in0.0 mm
07:25 AM 75.3°F24.1°C 64.4°F18.0°C 69% Calm Calm -- 30.12 in1020.0 mb 0.00 in0.0 mm 0.00 in0.0 mm 0.00 in0.0 mm
07:30 AM 75.6°F24.2°C 64.2°F17.9°C 68% Calm Calm 2.0 mph3.2 kmh 30.12 in1020.0 mb 0.00 in0.0 mm 0.00 in0.0 mm 0.00 in0.0 mm
07:35 AM 75.9°F24.4°C 64.5°F18.1°C 68% Calm Calm 2.0 mph3.2 kmh 30.12 in1020.0 mb 0.00 in0.0 mm 0.00 in0.0 mm 0.00 in0.0 mm
07:40 AM 76.2°F24.6°C 64.4°F18.0°C 67% Calm Calm 2.0 mph3.2 kmh 30.12 in1020.0 mb 0.00 in0.0 mm 0.00 in0.0 mm 0.00 in0.0 mm
07:45 AM 76.5°F24.7°C 64.2°F17.9°C 66% 2.0 mph SE3.2 kmh SE 7.0 mph11.3 kmh 30.12 in1020.0 mb 0.00 in0.0 mm 0.00 in0.0 mm 0.00 in0.0 mm
07:50 AM 76.6°F24.8°C 64.3°F17.9°C 66% 5.0 mph SE8.0 kmh SE 9.0 mph14.5 kmh 30.12 in1020.0 mb 0.00 in0.0 mm 0.00 in0.0 mm 0.00 in0.0 mm
07:55 AM 76.9°F24.9°C 64.2°F17.9°C 65% 6.0 mph SE9.7 kmh SE 10.0 mph16.1 kmh 30.12 in1020.0 mb 0.00 in0.0 mm 0.00 in0.0 mm 0.00 in0.0 mm
08:00 AM 77.1°F25.1°C 63.9°F17.7°C 64% 1.0 mph ESE1.6 kmh ESE 9.0 mph14.5 kmh 30.13 in1020.3 mb 0.00 in0.0 mm 0.00 in0.0 mm 0.00 in0.0 mm
08:05 AM 77.2°F25.1°C 63.6°F17.6°C 63% 2.0 mph SE3.2 kmh SE 11.0 mph17.7 kmh 30.13 in1020.3 mb 0.00 in0.0 mm 0.00 in0.0 mm 0.00 in0.0 mm
08:10 AM 77.1°F25.1°C 63.9°F17.7°C 64% 1.0 mph ESE1.6 kmh ESE 7.0 mph11.3 kmh 30.13 in1020.3 mb 0.00 in0.0 mm 0.00 in0.0 mm 0.00 in0.0 mm
08:15 AM 77.5°F25.3°C 63.8°F17.7°C 63% 6.0 mph SSE9.7 kmh SSE 9.0 mph14.5 kmh 30.13 in1020.3 mb 0.00 in0.0 mm 0.00 in0.0 mm 0.00 in0.0 mm
08:20 AM 77.7°F25.4°C 64.0°F17.8°C 63% 3.0 mph SSE4.8 kmh SSE 8.0 mph12.9 kmh 30.13 in1020.3 mb 0.00 in0.0 mm 0.00 in0.0 mm 0.00 in0.0 mm
08:25 AM 77.8°F25.4°C 64.1°F17.8°C 63% 4.0 mph SSE6.4 kmh SSE 10.0 mph16.1 kmh 30.13 in1020.3 mb 0.00 in0.0 mm 0.00 in0.0 mm 0.00 in0.0 mm
08:30 AM 77.8°F25.4°C 63.7°F17.6°C 62% 2.0 mph E3.2 kmh E 11.0 mph17.7 kmh 30.13 in1020.3 mb 0.00 in0.0 mm 0.00 in0.0 mm 0.00 in0.0 mm
08:35 AM 78.0°F25.6°C 63.9°F17.7°C 62% 4.0 mph SE6.4 kmh SE 7.0 mph11.3 kmh 30.13 in1020.3 mb 0.00 in0.0 mm 0.00 in0.0 mm 0.00 in0.0 mm
08:40 AM 78.3°F25.7°C 63.7°F17.6°C 61% 6.0 mph S9.7 kmh S 12.0 mph19.3 kmh 30.14 in1020.7 mb 0.00 in0.0 mm 0.00 in0.0 mm 0.00 in0.0 mm
08:45 AM 78.2°F25.7°C 63.6°F17.6°C 61% 7.0 mph ESE11.3 kmh ESE 14.0 mph22.5 kmh 30.13 in1020.3 mb 0.00 in0.0 mm 0.00 in0.0 mm 0.00 in0.0 mm
08:50 AM 78.5°F25.8°C 63.9°F17.7°C 61% 4.0 mph SSE6.4 kmh SSE 14.0 mph22.5 kmh 30.13 in1020.3 mb 0.00 in0.0 mm 0.00 in0.0 mm 0.00 in0.0 mm
08:55 AM 78.7°F25.9°C 63.1°F17.3°C 59% 8.0 mph SE12.9 kmh SE 11.0 mph17.7 kmh 30.14 in1020.7 mb 0.00 in0.0 mm 0.00 in0.0 mm 0.00 in0.0 mm
09:00 AM 78.7°F25.9°C 63.6°F17.6°C 60% 7.0 mph S11.3 kmh S 14.0 mph22.5 kmh 30.14 in1020.7 mb 0.00 in0.0 mm 0.00 in0.0 mm 0.00 in0.0 mm
09:05 AM 78.9°F26.1°C 63.8°F17.7°C 60% 13.0 mph SE20.9 kmh SE 14.0 mph22.5 kmh 30.14 in1020.7 mb 0.00 in0.0 mm 0.00 in0.0 mm 0.00 in0.0 mm
09:10 AM 78.9°F26.1°C 63.3°F17.4°C 59% 6.0 mph S9.7 kmh S 16.0 mph25.7 kmh 30.14 in1020.7 mb 0.00 in0.0 mm 0.00 in0.0 mm 0.00 in0.0 mm
09:15 AM 79.3°F26.3°C 63.2°F17.3°C 58% 4.0 mph SE6.4 kmh SE 14.0 mph22.5 kmh 30.14 in1020.7 mb 0.00 in0.0 mm 0.00 in0.0 mm 0.00 in0.0 mm
09:20 AM 79.5°F26.4°C 62.9°F17.2°C 57% 5.0 mph S8.0 kmh S 12.0 mph19.3 kmh 30.14 in1020.7 mb 0.00 in0.0 mm 0.00 in0.0 mm 0.00 in0.0 mm
09:25 AM 79.8°F26.6°C 63.1°F17.3°C 57% 5.0 mph SSW8.0 kmh SSW 14.0 mph22.5 kmh 30.14 in1020.7 mb 0.00 in0.0 mm 0.00 in0.0 mm 0.00 in0.0 mm
09:30 AM 80.1°F26.7°C 62.9°F17.2°C 56% 13.0 mph S20.9 kmh S 14.0 mph22.5 kmh 30.14 in1020.7 mb 0.00 in0.0 mm 0.00 in0.0 mm 0.00 in0.0 mm
09:35 AM 80.1°F26.7°C 62.9°F17.2°C 56% 7.0 mph S11.3 kmh S 13.0 mph20.9 kmh 30.14 in1020.7 mb 0.00 in0.0 mm 0.00 in0.0 mm 0.00 in0.0 mm
09:40 AM 80.1°F26.7°C 62.9°F17.2°C 56% 6.0 mph SE9.7 kmh SE 17.0 mph27.4 kmh 30.14 in1020.7 mb 0.00 in0.0 mm 0.00 in0.0 mm 0.00 in0.0 mm
09:45 AM 80.3°F26.8°C 63.1°F17.3°C 56% 2.0 mph SE3.2 kmh SE 15.0 mph24.1 kmh 30.14 in1020.7 mb 0.00 in0.0 mm 0.00 in0.0 mm 0.00 in0.0 mm
09:50 AM 80.5°F26.9°C 62.8°F17.1°C 55% 3.0 mph S4.8 kmh S 15.0 mph24.1 kmh 30.14 in1020.7 mb 0.00 in0.0 mm 0.00 in0.0 mm 0.00 in0.0 mm
09:55 AM 80.8°F27.1°C 63.0°F17.2°C 55% 13.0 mph SE20.9 kmh SE 15.0 mph24.1 kmh 30.14 in1020.7 mb 0.00 in0.0 mm 0.00 in0.0 mm 0.00 in0.0 mm
10:00 AM 80.3°F26.8°C 63.1°F17.3°C 56% 5.0 mph SE8.0 kmh SE 16.0 mph25.7 kmh 30.14 in1020.7 mb 0.00 in0.0 mm 0.00 in0.0 mm 0.00 in0.0 mm
10:05 AM 80.6°F27.0°C 63.4°F17.4°C 56% 4.0 mph S6.4 kmh S 14.0 mph22.5 kmh 30.14 in1020.7 mb 0.00 in0.0 mm 0.00 in0.0 mm 0.00 in0.0 mm
10:10 AM 80.7°F27.1°C 63.0°F17.2°C 55% 8.0 mph SE12.9 kmh SE 16.0 mph25.7 kmh 30.14 in1020.7 mb 0.00 in0.0 mm 0.00 in0.0 mm 0.00 in0.0 mm
10:15 AM 80.9°F27.2°C 63.1°F17.3°C 55% 7.0 mph SSE11.3 kmh SSE 13.0 mph20.9 kmh 30.14 in1020.7 mb 0.00 in0.0 mm 0.00 in0.0 mm 0.00 in0.0 mm
10:20 AM 81.0°F27.2°C 62.7°F17.1°C 54% 8.0 mph SE12.9 kmh SE 15.0 mph24.1 kmh 30.14 in1020.7 mb 0.00 in0.0 mm 0.00 in0.0 mm 0.00 in0.0 mm
10:25 AM 81.0°F27.2°C 62.7°F17.1°C 54% 8.0 mph SSE12.9 kmh SSE 14.0 mph22.5 kmh 30.14 in1020.7 mb 0.00 in0.0 mm 0.00 in0.0 mm 0.00 in0.0 mm
10:30 AM 81.2°F27.3°C 62.9°F17.2°C 54% 9.0 mph S14.5 kmh S 14.0 mph22.5 kmh 30.14 in1020.7 mb 0.00 in0.0 mm 0.00 in0.0 mm 0.00 in0.0 mm
10:35 AM 81.1°F27.3°C 62.8°F17.1°C 54% 13.0 mph S20.9 kmh S 15.0 mph24.1 kmh 30.14 in1020.7 mb 0.00 in0.0 mm 0.00 in0.0 mm 0.00 in0.0 mm
10:40 AM 81.3°F27.4°C 63.5°F17.5°C 55% 7.0 mph SE11.3 kmh SE 15.0 mph24.1 kmh 30.14 in1020.7 mb 0.00 in0.0 mm 0.00 in0.0 mm 0.00 in0.0 mm
10:45 AM 81.9°F27.7°C 63.5°F17.5°C 54% 5.0 mph SE8.0 kmh SE 15.0 mph24.1 kmh 30.14 in1020.7 mb 0.00 in0.0 mm 0.00 in0.0 mm 0.00 in0.0 mm
10:50 AM 81.8°F27.7°C 63.5°F17.5°C 54% 8.0 mph S12.9 kmh S 18.0 mph29.0 kmh 30.14 in1020.7 mb 0.00 in0.0 mm 0.00 in0.0 mm 0.00 in0.0 mm
10:55 AM 81.5°F27.5°C 63.2°F17.3°C 54% 6.0 mph SE9.7 kmh SE 18.0 mph29.0 kmh 30.14 in1020.7 mb 0.00 in0.0 mm 0.00 in0.0 mm 0.00 in0.0 mm
11:00 AM 81.5°F27.5°C 63.7°F17.6°C 55% 8.0 mph SE12.9 kmh SE 16.0 mph25.7 kmh 30.14 in1020.7 mb 0.00 in0.0 mm 0.00 in0.0 mm 0.00 in0.0 mm
11:05 AM 81.9°F27.7°C 63.5°F17.5°C 54% 5.0 mph ESE8.0 kmh ESE 13.0 mph20.9 kmh 30.14 in1020.7 mb 0.00 in0.0 mm 0.00 in0.0 mm 0.00 in0.0 mm
11:10 AM 82.2°F27.9°C 63.8°F17.7°C 54% 7.0 mph SSE11.3 kmh SSE 11.0 mph17.7 kmh 30.14 in1020.7 mb 0.00 in0.0 mm 0.00 in0.0 mm 0.00 in0.0 mm
11:15 AM 82.0°F27.8°C 63.1°F17.3°C 53% 8.0 mph S12.9 kmh S 13.0 mph20.9 kmh 30.14 in1020.7 mb 0.00 in0.0 mm 0.00 in0.0 mm 0.00 in0.0 mm
11:20 AM 82.5°F28.1°C 64.1°F17.8°C 54% 2.0 mph SE3.2 kmh SE 11.0 mph17.7 kmh 30.13 in1020.3 mb 0.00 in0.0 mm 0.00 in0.0 mm 0.00 in0.0 mm
11:25 AM 82.5°F28.1°C 63.6°F17.6°C 53% 5.0 mph SE8.0 kmh SE 10.0 mph16.1 kmh 30.13 in1020.3 mb 0.00 in0.0 mm 0.00 in0.0 mm 0.00 in0.0 mm
11:30 AM 82.2°F27.9°C 63.8°F17.7°C 54% 6.0 mph S9.7 kmh S 11.0 mph17.7 kmh 30.13 in1020.3 mb 0.00 in0.0 mm 0.00 in0.0 mm 0.00 in0.0 mm
11:35 AM 82.3°F27.9°C 63.9°F17.7°C 54% 11.0 mph S17.7 kmh S 11.0 mph17.7 kmh 30.13 in1020.3 mb 0.00 in0.0 mm 0.00 in0.0 mm 0.00 in0.0 mm
11:40 AM 82.5°F28.1°C 63.6°F17.6°C 53% 3.0 mph SSE4.8 kmh SSE 11.0 mph17.7 kmh 30.13 in1020.3 mb 0.00 in0.0 mm 0.00 in0.0 mm 0.00 in0.0 mm
11:45 AM 82.8°F28.2°C 63.8°F17.7°C 53% 5.0 mph SE8.0 kmh SE 11.0 mph17.7 kmh 30.13 in1020.3 mb 0.00 in0.0 mm 0.00 in0.0 mm 0.00 in0.0 mm
11:50 AM 82.6°F28.1°C 64.2°F17.9°C 54% 5.0 mph ESE8.0 kmh ESE 10.0 mph16.1 kmh 30.13 in1020.3 mb 0.00 in0.0 mm 0.00 in0.0 mm 0.00 in0.0 mm
11:55 AM 82.6°F28.1°C 64.2°F17.9°C 54% 3.0 mph S4.8 kmh S 11.0 mph17.7 kmh 30.13 in1020.3 mb 0.00 in0.0 mm 0.00 in0.0 mm 0.00 in0.0 mm
12:00 PM 82.7°F28.2°C 63.7°F17.6°C 53% 2.0 mph SE3.2 kmh SE 11.0 mph17.7 kmh 30.13 in1020.3 mb 0.00 in0.0 mm 0.00 in0.0 mm 0.00 in0.0 mm
12:05 PM 82.5°F28.1°C 64.1°F17.8°C 54% Calm Calm 9.0 mph14.5 kmh 30.13 in1020.3 mb 0.00 in0.0 mm 0.00 in0.0 mm 0.00 in0.0 mm
12:10 PM 82.9°F28.3°C 64.5°F18.1°C 54% Calm Calm 12.0 mph19.3 kmh 30.13 in1020.3 mb 0.00 in0.0 mm 0.00 in0.0 mm 0.00 in0.0 mm
12:15 PM 83.2°F28.4°C 64.7°F18.2°C 54% 4.0 mph SE6.4 kmh SE 6.0 mph9.7 kmh 30.13 in1020.3 mb 0.00 in0.0 mm 0.00 in0.0 mm 0.00 in0.0 mm
12:20 PM 83.4°F28.6°C 64.9°F18.3°C 54% 5.0 mph S8.0 kmh S 8.0 mph12.9 kmh 30.13 in1020.3 mb 0.00 in0.0 mm 0.00 in0.0 mm 0.00 in0.0 mm
12:25 PM 82.7°F28.2°C 64.8°F18.2°C 55% 3.0 mph SE4.8 kmh SE 10.0 mph16.1 kmh 30.13 in1020.3 mb 0.00 in0.0 mm 0.00 in0.0 mm 0.00 in0.0 mm
12:30 PM 82.8°F28.2°C 64.4°F18.0°C 54% 3.0 mph S4.8 kmh S 12.0 mph19.3 kmh 30.13 in1020.3 mb 0.00 in0.0 mm 0.00 in0.0 mm 0.00 in0.0 mm
12:35 PM 82.6°F28.1°C 65.7°F18.7°C 57% 3.0 mph W4.8 kmh W 9.0 mph14.5 kmh 30.13 in1020.3 mb 0.00 in0.0 mm 0.00 in0.0 mm 0.00 in0.0 mm
12:40 PM 82.1°F27.8°C 64.8°F18.2°C 56% 2.0 mph SSW3.2 kmh SSW 10.0 mph16.1 kmh 30.13 in1020.3 mb 0.00 in0.0 mm 0.00 in0.0 mm 0.00 in0.0 mm
12:45 PM 82.1°F27.8°C 67.2°F19.6°C 61% 4.0 mph SW6.4 kmh SW 7.0 mph11.3 kmh 30.12 in1020.0 mb 0.00 in0.0 mm 0.00 in0.0 mm 0.00 in0.0 mm
12:50 PM 82.1°F27.8°C 65.3°F18.5°C 57% 2.0 mph S3.2 kmh S 6.0 mph9.7 kmh 30.12 in1020.0 mb 0.00 in0.0 mm 0.00 in0.0 mm 0.00 in0.0 mm
12:55 PM 81.9°F27.7°C 67.5°F19.7°C 62% 5.0 mph SSW8.0 kmh SSW 10.0 mph16.1 kmh 30.12 in1020.0 mb 0.00 in0.0 mm 0.00 in0.0 mm 0.00 in0.0 mm
01:00 PM 82.3°F27.9°C 67.9°F19.9°C 62% 6.0 mph W9.7 kmh W 9.0 mph14.5 kmh 30.12 in1020.0 mb 0.00 in0.0 mm 0.00 in0.0 mm 0.00 in0.0 mm
01:05 PM 82.9°F28.3°C 67.5°F19.7°C 60% Calm Calm 6.0 mph9.7 kmh 30.12 in1020.0 mb 0.00 in0.0 mm 0.00 in0.0 mm 0.00 in0.0 mm
01:10 PM 83.5°F28.6°C 67.6°F19.8°C 59% 2.0 mph W3.2 kmh W 6.0 mph9.7 kmh 30.12 in1020.0 mb 0.00 in0.0 mm 0.00 in0.0 mm 0.00 in0.0 mm
01:15 PM 83.7°F28.7°C 67.3°F19.6°C 58% 1.0 mph W1.6 kmh W 5.0 mph8.0 kmh 30.12 in1020.0 mb 0.00 in0.0 mm 0.00 in0.0 mm 0.00 in0.0 mm
01:20 PM 84.0°F28.9°C 67.6°F19.8°C 58% 2.0 mph NW3.2 kmh NW 9.0 mph14.5 kmh 30.12 in1020.0 mb 0.00 in0.0 mm 0.00 in0.0 mm 0.00 in0.0 mm
01:25 PM 83.7°F28.7°C 67.8°F19.9°C 59% 4.0 mph W6.4 kmh W 9.0 mph14.5 kmh 30.12 in1020.0 mb 0.00 in0.0 mm 0.00 in0.0 mm 0.00 in0.0 mm
01:30 PM 83.6°F28.7°C 67.7°F19.8°C 59% 2.0 mph WSW3.2 kmh WSW 7.0 mph11.3 kmh 30.12 in1020.0 mb 0.00 in0.0 mm 0.00 in0.0 mm 0.00 in0.0 mm
01:35 PM 83.3°F28.5°C 67.9°F19.9°C 60% Calm Calm 7.0 mph11.3 kmh 30.12 in1020.0 mb 0.00 in0.0 mm 0.00 in0.0 mm 0.00 in0.0 mm
01:40 PM 82.8°F28.2°C 66.9°F19.4°C 59% Calm Calm 6.0 mph9.7 kmh 30.12 in1020.0 mb 0.00 in0.0 mm 0.00 in0.0 mm 0.00 in0.0 mm
01:45 PM 82.2°F27.9°C 65.9°F18.8°C 58% 1.0 mph NNW1.6 kmh NNW 8.0 mph12.9 kmh 30.12 in1020.0 mb 0.00 in0.0 mm 0.00 in0.0 mm 0.00 in0.0 mm
01:50 PM 81.8°F27.7°C 66.5°F19.2°C 60% 3.0 mph WNW4.8 kmh WNW 7.0 mph11.3 kmh 30.12 in1020.0 mb 0.00 in0.0 mm 0.00 in0.0 mm 0.00 in0.0 mm
01:55 PM 81.5°F27.5°C 66.7°F19.3°C 61% Calm Calm 5.0 mph8.0 kmh 30.12 in1020.0 mb 0.00 in0.0 mm 0.00 in0.0 mm 0.00 in0.0 mm
02:00 PM 81.5°F27.5°C 66.2°F19.0°C 60% Calm Calm 3.0 mph4.8 kmh 30.12 in1020.0 mb 0.00 in0.0 mm 0.00 in0.0 mm 0.00 in0.0 mm
02:05 PM 81.5°F27.5°C 65.7°F18.7°C 59% Calm Calm 4.0 mph6.4 kmh 30.12 in1020.0 mb 0.00 in0.0 mm 0.00 in0.0 mm 0.00 in0.0 mm
02:10 PM 81.5°F27.5°C 66.2°F19.0°C 60% 3.0 mph NW4.8 kmh NW 9.0 mph14.5 kmh 30.12 in1020.0 mb 0.00 in0.0 mm 0.00 in0.0 mm 0.00 in0.0 mm
02:15 PM 81.6°F27.6°C 66.8°F19.3°C 61% Calm Calm 4.0 mph6.4 kmh 30.12 in1020.0 mb 0.00 in0.0 mm 0.00 in0.0 mm 0.00 in0.0 mm
02:20 PM 81.5°F27.5°C 66.2°F19.0°C 60% Calm Calm 5.0 mph8.0 kmh 30.12 in1020.0 mb 0.00 in0.0 mm 0.00 in0.0 mm 0.00 in0.0 mm
02:25 PM 81.3°F27.4°C 66.5°F19.2°C 61% 1.0 mph NW1.6 kmh NW 9.0 mph14.5 kmh 30.12 in1020.0 mb 0.00 in0.0 mm 0.00 in0.0 mm 0.00 in0.0 mm
02:30 PM 81.2°F27.3°C 66.4°F19.1°C 61% 5.0 mph WNW8.0 kmh WNW 7.0 mph11.3 kmh 30.12 in1020.0 mb 0.00 in0.0 mm 0.00 in0.0 mm 0.00 in0.0 mm
02:35 PM 81.1°F27.3°C 66.3°F19.1°C 61% 1.0 mph WNW1.6 kmh WNW 4.0 mph6.4 kmh 30.12 in1020.0 mb 0.00 in0.0 mm 0.00 in0.0 mm 0.00 in0.0 mm
02:40 PM 81.1°F27.3°C 66.3°F19.1°C 61% Calm Calm 4.0 mph6.4 kmh 30.12 in1020.0 mb 0.00 in0.0 mm 0.00 in0.0 mm 0.00 in0.0 mm
02:45 PM 81.2°F27.3°C 66.4°F19.1°C 61% 6.0 mph W9.7 kmh W 6.0 mph9.7 kmh 30.12 in1020.0 mb 0.00 in0.0 mm 0.00 in0.0 mm 0.00 in0.0 mm
02:50 PM 81.0°F27.2°C 66.2°F19.0°C 61% 2.0 mph W3.2 kmh W 6.0 mph9.7 kmh 30.12 in1020.0 mb 0.00 in0.0 mm 0.00 in0.0 mm 0.00 in0.0 mm
02:55 PM 81.2°F27.3°C 66.9°F19.4°C 62% 3.0 mph WSW4.8 kmh WSW 8.0 mph12.9 kmh 30.12 in1020.0 mb 0.00 in0.0 mm 0.00 in0.0 mm 0.00 in0.0 mm
03:00 PM 81.7°F27.6°C 67.3°F19.6°C 62% 3.0 mph W4.8 kmh W 7.0 mph11.3 kmh 30.12 in1020.0 mb 0.00 in0.0 mm 0.00 in0.0 mm 0.00 in0.0 mm
03:05 PM 81.8°F27.7°C 67.4°F19.7°C 62% 4.0 mph W6.4 kmh W 8.0 mph12.9 kmh 30.12 in1020.0 mb 0.00 in0.0 mm 0.00 in0.0 mm 0.00 in0.0 mm
03:10 PM 81.5°F27.5°C 66.7°F19.3°C 61% Calm Calm 9.0 mph14.5 kmh 30.12 in1020.0 mb 0.00 in0.0 mm 0.00 in0.0 mm 0.00 in0.0 mm
03:15 PM 81.6°F27.6°C 66.8°F19.3°C 61% 2.0 mph NW3.2 kmh NW 6.0 mph9.7 kmh 30.12 in1020.0 mb 0.00 in0.0 mm 0.00 in0.0 mm 0.00 in0.0 mm
03:20 PM 81.7°F27.6°C 66.9°F19.4°C 61% 8.0 mph W12.9 kmh W 8.0 mph12.9 kmh 30.12 in1020.0 mb 0.00 in0.0 mm 0.00 in0.0 mm 0.00 in0.0 mm
03:25 PM 81.6°F27.6°C 67.2°F19.6°C 62% 3.0 mph W4.8 kmh W 8.0 mph12.9 kmh 30.12 in1020.0 mb 0.00 in0.0 mm 0.00 in0.0 mm 0.00 in0.0 mm
03:30 PM 81.6°F27.6°C 66.8°F19.3°C 61% 6.0 mph WSW9.7 kmh WSW 9.0 mph14.5 kmh 30.12 in1020.0 mb 0.00 in0.0 mm 0.00 in0.0 mm 0.00 in0.0 mm
03:35 PM 81.6°F27.6°C 66.8°F19.3°C 61% 3.0 mph NW4.8 kmh NW 7.0 mph11.3 kmh 30.12 in1020.0 mb 0.00 in0.0 mm 0.00 in0.0 mm 0.00 in0.0 mm
03:40 PM 81.7°F27.6°C 66.9°F19.4°C 61% 5.0 mph NW8.0 kmh NW 7.0 mph11.3 kmh 30.12 in1020.0 mb 0.00 in0.0 mm 0.00 in0.0 mm 0.00 in0.0 mm
03:45 PM 81.6°F27.6°C 66.3°F19.1°C 60% Calm Calm 5.0 mph8.0 kmh 30.12 in1020.0 mb 0.00 in0.0 mm 0.00 in0.0 mm 0.00 in0.0 mm
03:50 PM 81.6°F27.6°C 66.8°F19.3°C 61% 1.0 mph W1.6 kmh W 6.0 mph9.7 kmh 30.12 in1020.0 mb 0.00 in0.0 mm 0.00 in0.0 mm 0.00 in0.0 mm
03:55 PM 81.5°F27.5°C 66.7°F19.3°C 61% 1.0 mph NW1.6 kmh NW 5.0 mph8.0 kmh 30.12 in1020.0 mb 0.00 in0.0 mm 0.00 in0.0 mm 0.00 in0.0 mm
04:00 PM 81.2°F27.3°C 66.4°F19.1°C 61% 1.0 mph NW1.6 kmh NW 5.0 mph8.0 kmh 30.12 in1020.0 mb 0.00 in0.0 mm 0.00 in0.0 mm 0.00 in0.0 mm
04:05 PM 81.1°F27.3°C 66.3°F19.1°C 61% 3.0 mph NW4.8 kmh NW 5.0 mph8.0 kmh 30.12 in1020.0 mb 0.00 in0.0 mm 0.00 in0.0 mm 0.00 in0.0 mm
04:10 PM 80.9°F27.2°C 66.6°F19.2°C 62% 1.0 mph WNW1.6 kmh WNW 7.0 mph11.3 kmh 30.12 in1020.0 mb 0.00 in0.0 mm 0.00 in0.0 mm 0.00 in0.0 mm
04:15 PM 80.7°F27.1°C 66.4°F19.1°C 62% 5.0 mph W8.0 kmh W 6.0 mph9.7 kmh 30.12 in1020.0 mb 0.00 in0.0 mm 0.00 in0.0 mm 0.00 in0.0 mm
04:20 PM 80.4°F26.9°C 66.1°F18.9°C 62% 3.0 mph W4.8 kmh W 5.0 mph8.0 kmh 30.12 in1020.0 mb 0.00 in0.0 mm 0.00 in0.0 mm 0.00 in0.0 mm
04:25 PM 80.4°F26.9°C 66.1°F18.9°C 62% 2.0 mph W3.2 kmh W 4.0 mph6.4 kmh 30.12 in1020.0 mb 0.00 in0.0 mm 0.00 in0.0 mm 0.00 in0.0 mm
04:30 PM 80.5°F26.9°C 66.2°F19.0°C 62% Calm Calm 4.0 mph6.4 kmh 30.12 in1020.0 mb 0.00 in0.0 mm 0.00 in0.0 mm 0.00 in0.0 mm
04:35 PM 80.6°F27.0°C 66.3°F19.1°C 62% 1.0 mph W1.6 kmh W 3.0 mph4.8 kmh 30.12 in1020.0 mb 0.00 in0.0 mm 0.00 in0.0 mm 0.00 in0.0 mm
04:40 PM 80.6°F27.0°C 66.3°F19.1°C 62% Calm Calm 5.0 mph8.0 kmh 30.12 in1020.0 mb 0.00 in0.0 mm 0.00 in0.0 mm 0.00 in0.0 mm
04:45 PM 80.6°F27.0°C 66.3°F19.1°C 62% 3.0 mph WNW4.8 kmh WNW 4.0 mph6.4 kmh 30.12 in1020.0 mb 0.00 in0.0 mm 0.00 in0.0 mm 0.00 in0.0 mm
04:50 PM 80.7°F27.1°C 65.9°F18.8°C 61% 2.0 mph W3.2 kmh W 5.0 mph8.0 kmh 30.11 in1019.6 mb 0.00 in0.0 mm 0.00 in0.0 mm 0.00 in0.0 mm
04:55 PM 80.6°F27.0°C 65.8°F18.8°C 61% Calm Calm 4.0 mph6.4 kmh 30.11 in1019.6 mb 0.00 in0.0 mm 0.00 in0.0 mm 0.00 in0.0 mm
05:00 PM 80.5°F26.9°C 65.7°F18.7°C 61% 2.0 mph W3.2 kmh W 3.0 mph4.8 kmh 30.11 in1019.6 mb 0.00 in0.0 mm 0.00 in0.0 mm 0.00 in0.0 mm
05:05 PM 80.2°F26.8°C 65.5°F18.6°C 61% Calm Calm 5.0 mph8.0 kmh 30.11 in1019.6 mb 0.00 in0.0 mm 0.00 in0.0 mm 0.00 in0.0 mm
05:10 PM 80.0°F26.7°C 65.7°F18.7°C 62% Calm Calm 3.0 mph4.8 kmh 30.11 in1019.6 mb 0.00 in0.0 mm 0.00 in0.0 mm 0.00 in0.0 mm
05:15 PM 79.6°F26.4°C 65.4°F18.6°C 62% 3.0 mph NNE4.8 kmh NNE 6.0 mph9.7 kmh 30.11 in1019.6 mb 0.00 in0.0 mm 0.00 in0.0 mm 0.00 in0.0 mm
05:20 PM 79.6°F26.4°C 65.8°F18.8°C 63% 3.0 mph NNE4.8 kmh NNE 6.0 mph9.7 kmh 30.11 in1019.6 mb 0.00 in0.0 mm 0.00 in0.0 mm 0.00 in0.0 mm
05:25 PM 79.3°F26.3°C 65.5°F18.6°C 63% 2.0 mph NNE3.2 kmh NNE 5.0 mph8.0 kmh 30.11 in1019.6 mb 0.00 in0.0 mm 0.00 in0.0 mm 0.00 in0.0 mm
05:30 PM 79.1°F26.2°C 65.3°F18.5°C 63% 5.0 mph NNE8.0 kmh NNE 5.0 mph8.0 kmh 30.11 in1019.6 mb 0.00 in0.0 mm 0.00 in0.0 mm 0.00 in0.0 mm
05:35 PM 78.9°F26.1°C 65.6°F18.7°C 64% 3.0 mph NNE4.8 kmh NNE 8.0 mph12.9 kmh 30.11 in1019.6 mb 0.00 in0.0 mm 0.00 in0.0 mm 0.00 in0.0 mm
05:40 PM 78.9°F26.1°C 65.6°F18.7°C 64% Calm Calm 3.0 mph4.8 kmh 30.11 in1019.6 mb 0.00 in0.0 mm 0.00 in0.0 mm 0.00 in0.0 mm
05:45 PM 79.0°F26.1°C 65.7°F18.7°C 64% Calm Calm 5.0 mph8.0 kmh 30.11 in1019.6 mb 0.00 in0.0 mm 0.00 in0.0 mm 0.00 in0.0 mm
05:50 PM 78.9°F26.1°C 65.6°F18.7°C 64% 5.0 mph WSW8.0 kmh WSW 6.0 mph9.7 kmh 30.12 in1020.0 mb 0.00 in0.0 mm 0.00 in0.0 mm 0.00 in0.0 mm
05:55 PM 78.5°F25.8°C 65.2°F18.4°C 64% 3.0 mph SW4.8 kmh SW 6.0 mph9.7 kmh 30.11 in1019.6 mb 0.00 in0.0 mm 0.00 in0.0 mm 0.00 in0.0 mm
06:00 PM 78.3°F25.7°C 65.0°F18.3°C 64% Calm Calm 4.0 mph6.4 kmh 30.11 in1019.6 mb 0.00 in0.0 mm 0.00 in0.0 mm 0.00 in0.0 mm
06:05 PM 78.1°F25.6°C 65.3°F18.5°C 65% 1.0 mph S1.6 kmh S 5.0 mph8.0 kmh 30.11 in1019.6 mb 0.00 in0.0 mm 0.00 in0.0 mm 0.00 in0.0 mm
06:10 PM 78.0°F25.6°C 65.2°F18.4°C 65% 4.0 mph S6.4 kmh S 5.0 mph8.0 kmh 30.11 in1019.6 mb 0.00 in0.0 mm 0.00 in0.0 mm 0.00 in0.0 mm
06:15 PM 77.9°F25.5°C 65.1°F18.4°C 65% 1.0 mph S1.6 kmh S 4.0 mph6.4 kmh 30.11 in1019.6 mb 0.00 in0.0 mm 0.00 in0.0 mm 0.00 in0.0 mm
06:20 PM 77.5°F25.3°C 64.7°F18.2°C 65% Calm Calm 4.0 mph6.4 kmh 30.11 in1019.6 mb 0.00 in0.0 mm 0.00 in0.0 mm 0.00 in0.0 mm
06:25 PM 77.2°F25.1°C 64.9°F18.3°C 66% 4.0 mph SE6.4 kmh SE 6.0 mph9.7 kmh 30.12 in1020.0 mb 0.00 in0.0 mm 0.00 in0.0 mm 0.00 in0.0 mm
06:30 PM 77.0°F25.0°C 64.7°F18.2°C 66% 4.0 mph SE6.4 kmh SE 5.0 mph8.0 kmh 30.12 in1020.0 mb 0.00 in0.0 mm 0.00 in0.0 mm 0.00 in0.0 mm
06:35 PM 76.8°F24.9°C 64.9°F18.3°C 67% 2.0 mph SSE3.2 kmh SSE 5.0 mph8.0 kmh 30.12 in1020.0 mb 0.00 in0.0 mm 0.00 in0.0 mm 0.00 in0.0 mm
06:40 PM 76.7°F24.8°C 64.8°F18.2°C 67% 2.0 mph SE3.2 kmh SE 3.0 mph4.8 kmh 30.12 in1020.0 mb 0.00 in0.0 mm 0.00 in0.0 mm 0.00 in0.0 mm
06:45 PM 76.6°F24.8°C 64.8°F18.2°C 67% 2.0 mph S3.2 kmh S 5.0 mph8.0 kmh 30.12 in1020.0 mb 0.00 in0.0 mm 0.00 in0.0 mm 0.00 in0.0 mm
06:50 PM 76.5°F24.7°C 65.1°F18.4°C 68% Calm Calm 4.0 mph6.4 kmh 30.12 in1020.0 mb 0.00 in0.0 mm 0.00 in0.0 mm 0.00 in0.0 mm
06:55 PM 76.3°F24.6°C 64.9°F18.3°C 68% 3.0 mph SE4.8 kmh SE 8.0 mph12.9 kmh 30.12 in1020.0 mb 0.00 in0.0 mm 0.00 in0.0 mm 0.00 in0.0 mm
07:00 PM 76.1°F24.5°C 64.7°F18.2°C 68% 5.0 mph S8.0 kmh S 8.0 mph12.9 kmh 30.12 in1020.0 mb 0.00 in0.0 mm 0.00 in0.0 mm 0.00 in0.0 mm
07:05 PM 76.0°F24.4°C 65.0°F18.3°C 69% 1.0 mph SE1.6 kmh SE 5.0 mph8.0 kmh 30.12 in1020.0 mb 0.00 in0.0 mm 0.00 in0.0 mm 0.00 in0.0 mm
07:10 PM 76.0°F24.4°C 65.0°F18.3°C 69% 1.0 mph SE1.6 kmh SE 3.0 mph4.8 kmh 30.12 in1020.0 mb 0.00 in0.0 mm 0.00 in0.0 mm 0.00 in0.0 mm
07:15 PM 75.9°F24.4°C 64.9°F18.3°C 69% 5.0 mph SE8.0 kmh SE 5.0 mph8.0 kmh 30.12 in1020.0 mb 0.00 in0.0 mm 0.00 in0.0 mm 0.00 in0.0 mm
07:20 PM 75.7°F24.3°C 64.7°F18.2°C 69% 2.0 mph ESE3.2 kmh ESE 7.0 mph11.3 kmh 30.12 in1020.0 mb 0.00 in0.0 mm 0.00 in0.0 mm 0.00 in0.0 mm
07:25 PM 75.5°F24.2°C 64.5°F18.1°C 69% 5.0 mph SE8.0 kmh SE 7.0 mph11.3 kmh 30.12 in1020.0 mb 0.00 in0.0 mm 0.00 in0.0 mm 0.00 in0.0 mm
07:30 PM 75.4°F24.1°C 64.9°F18.3°C 70% Calm Calm 7.0 mph11.3 kmh 30.12 in1020.0 mb 0.00 in0.0 mm 0.00 in0.0 mm 0.00 in0.0 mm
07:35 PM 75.4°F24.1°C 64.9°F18.3°C 70% Calm Calm 6.0 mph9.7 kmh 30.12 in1020.0 mb 0.00 in0.0 mm 0.00 in0.0 mm 0.00 in0.0 mm
07:40 PM 75.4°F24.1°C 64.9°F18.3°C 70% 3.0 mph SE4.8 kmh SE 5.0 mph8.0 kmh 30.12 in1020.0 mb 0.00 in0.0 mm 0.00 in0.0 mm 0.00 in0.0 mm
07:45 PM 75.2°F24.0°C 64.7°F18.2°C 70% 5.0 mph SE8.0 kmh SE 5.0 mph8.0 kmh 30.13 in1020.3 mb 0.00 in0.0 mm 0.00 in0.0 mm 0.00 in0.0 mm
07:50 PM 75.2°F24.0°C 65.1°F18.4°C 71% 1.0 mph SE1.6 kmh SE 5.0 mph8.0 kmh 30.13 in1020.3 mb 0.00 in0.0 mm 0.00 in0.0 mm 0.00 in0.0 mm
07:55 PM 75.2°F24.0°C 65.1°F18.4°C 71% 2.0 mph SE3.2 kmh SE 4.0 mph6.4 kmh 30.13 in1020.3 mb 0.00 in0.0 mm 0.00 in0.0 mm 0.00 in0.0 mm
08:00 PM 75.1°F23.9°C 65.0°F18.3°C 71% Calm Calm 7.0 mph11.3 kmh 30.13 in1020.3 mb 0.00 in0.0 mm 0.00 in0.0 mm 0.00 in0.0 mm
08:05 PM 75.1°F23.9°C 65.0°F18.3°C 71% 3.0 mph SE4.8 kmh SE 4.0 mph6.4 kmh 30.13 in1020.3 mb 0.00 in0.0 mm 0.00 in0.0 mm 0.00 in0.0 mm
08:10 PM 75.0°F23.9°C 64.9°F18.3°C 71% 4.0 mph ESE6.4 kmh ESE 4.0 mph6.4 kmh 30.13 in1020.3 mb 0.00 in0.0 mm 0.00 in0.0 mm 0.00 in0.0 mm
08:15 PM 75.0°F23.9°C 64.9°F18.3°C 71% 4.0 mph SSE6.4 kmh SSE 7.0 mph11.3 kmh 30.13 in1020.3 mb 0.00 in0.0 mm 0.00 in0.0 mm 0.00 in0.0 mm
08:20 PM 75.1°F23.9°C 65.0°F18.3°C 71% Calm Calm 8.0 mph12.9 kmh 30.13 in1020.3 mb 0.00 in0.0 mm 0.00 in0.0 mm 0.00 in0.0 mm
08:25 PM 75.0°F23.9°C 64.5°F18.1°C 70% Calm Calm 6.0 mph9.7 kmh 30.13 in1020.3 mb 0.00 in0.0 mm 0.00 in0.0 mm 0.00 in0.0 mm
08:30 PM 74.9°F23.8°C 64.8°F18.2°C 71% 2.0 mph ESE3.2 kmh ESE 7.0 mph11.3 kmh 30.14 in1020.7 mb 0.00 in0.0 mm 0.00 in0.0 mm 0.00 in0.0 mm
08:35 PM 74.7°F23.7°C 64.6°F18.1°C 71% 3.0 mph E4.8 kmh E 7.0 mph11.3 kmh 30.14 in1020.7 mb 0.00 in0.0 mm 0.00 in0.0 mm 0.00 in0.0 mm
08:40 PM 74.6°F23.7°C 64.9°F18.3°C 72% Calm Calm 4.0 mph6.4 kmh 30.14 in1020.7 mb 0.00 in0.0 mm 0.00 in0.0 mm 0.00 in0.0 mm
08:45 PM 74.5°F23.6°C 64.8°F18.2°C 72% 3.0 mph ESE4.8 kmh ESE 5.0 mph8.0 kmh 30.14 in1020.7 mb 0.00 in0.0 mm 0.00 in0.0 mm 0.00 in0.0 mm
08:50 PM 74.4°F23.6°C 64.7°F18.2°C 72% 3.0 mph SE4.8 kmh SE 7.0 mph11.3 kmh 30.14 in1020.7 mb 0.00 in0.0 mm 0.00 in0.0 mm 0.00 in0.0 mm
08:55 PM 74.2°F23.4°C 64.5°F18.1°C 72% Calm Calm 7.0 mph11.3 kmh 30.14 in1020.7 mb 0.00 in0.0 mm 0.00 in0.0 mm 0.00 in0.0 mm
09:00 PM 74.3°F23.5°C 64.6°F18.1°C 72% Calm Calm 7.0 mph11.3 kmh 30.14 in1020.7 mb 0.00 in0.0 mm 0.00 in0.0 mm 0.00 in0.0 mm
09:05 PM 74.5°F23.6°C 64.8°F18.2°C 72% 4.0 mph SE6.4 kmh SE 7.0 mph11.3 kmh 30.14 in1020.7 mb 0.00 in0.0 mm 0.00 in0.0 mm 0.00 in0.0 mm
09:10 PM 74.6°F23.7°C 64.5°F18.1°C 71% 2.0 mph SE3.2 kmh SE 5.0 mph8.0 kmh 30.14 in1020.7 mb 0.00 in0.0 mm 0.00 in0.0 mm 0.00 in0.0 mm
09:15 PM 74.8°F23.8°C 64.7°F18.2°C 71% 2.0 mph ESE3.2 kmh ESE 5.0 mph8.0 kmh 30.14 in1020.7 mb 0.00 in0.0 mm 0.00 in0.0 mm 0.00 in0.0 mm
09:20 PM 74.7°F23.7°C 64.6°F18.1°C 71% 2.0 mph E3.2 kmh E 4.0 mph6.4 kmh 30.14 in1020.7 mb 0.00 in0.0 mm 0.00 in0.0 mm 0.00 in0.0 mm
09:25 PM 74.6°F23.7°C 64.5°F18.1°C 71% 1.0 mph E1.6 kmh E 5.0 mph8.0 kmh 30.14 in1020.7 mb 0.00 in0.0 mm 0.00 in0.0 mm 0.00 in0.0 mm
09:30 PM 74.7°F23.7°C 64.6°F18.1°C 71% 3.0 mph SE4.8 kmh SE 6.0 mph9.7 kmh 30.14 in1020.7 mb 0.00 in0.0 mm 0.00 in0.0 mm 0.00 in0.0 mm
09:35 PM 74.7°F23.7°C 64.6°F18.1°C 71% 2.0 mph SE3.2 kmh SE 5.0 mph8.0 kmh 30.14 in1020.7 mb 0.00 in0.0 mm 0.00 in0.0 mm 0.00 in0.0 mm
09:40 PM 74.7°F23.7°C 64.6°F18.1°C 71% 4.0 mph SE6.4 kmh SE 5.0 mph8.0 kmh 30.14 in1020.7 mb 0.00 in0.0 mm 0.00 in0.0 mm 0.00 in0.0 mm
09:45 PM 74.6°F23.7°C 64.5°F18.1°C 71% Calm Calm 5.0 mph8.0 kmh 30.14 in1020.7 mb 0.00 in0.0 mm 0.00 in0.0 mm 0.00 in0.0 mm
09:50 PM 74.7°F23.7°C 64.6°F18.1°C 71% Calm Calm 4.0 mph6.4 kmh 30.13 in1020.3 mb 0.00 in0.0 mm 0.00 in0.0 mm 0.00 in0.0 mm
09:55 PM 74.7°F23.7°C 64.6°F18.1°C 71% 1.0 mph SE1.6 kmh SE 4.0 mph6.4 kmh 30.13 in1020.3 mb 0.00 in0.0 mm 0.00 in0.0 mm 0.00 in0.0 mm
10:00 PM 74.8°F23.8°C 64.7°F18.2°C 71% 1.0 mph SE1.6 kmh SE 5.0 mph8.0 kmh 30.13 in1020.3 mb 0.00 in0.0 mm 0.00 in0.0 mm 0.00 in0.0 mm
10:05 PM 74.9°F23.8°C 64.4°F18.0°C 70% 3.0 mph SE4.8 kmh SE 5.0 mph8.0 kmh 30.12 in1020.0 mb 0.00 in0.0 mm 0.00 in0.0 mm 0.00 in0.0 mm
10:10 PM 74.8°F23.8°C 64.3°F17.9°C 70% 5.0 mph ESE8.0 kmh ESE 6.0 mph9.7 kmh 30.12 in1020.0 mb 0.00 in0.0 mm 0.00 in0.0 mm 0.00 in0.0 mm
10:15 PM 74.6°F23.7°C 64.5°F18.1°C 71% 2.0 mph E3.2 kmh E 8.0 mph12.9 kmh 30.12 in1020.0 mb 0.00 in0.0 mm 0.00 in0.0 mm 0.00 in0.0 mm
10:20 PM 74.4°F23.6°C 64.3°F17.9°C 71% 6.0 mph SE9.7 kmh SE 11.0 mph17.7 kmh 30.12 in1020.0 mb 0.00 in0.0 mm 0.00 in0.0 mm 0.00 in0.0 mm
10:25 PM 74.4°F23.6°C 64.3°F17.9°C 71% 3.0 mph SE4.8 kmh SE 11.0 mph17.7 kmh 30.12 in1020.0 mb 0.00 in0.0 mm 0.00 in0.0 mm 0.00 in0.0 mm
10:30 PM 74.2°F23.4°C 64.1°F17.8°C 71% 10.0 mph ESE16.1 kmh ESE 10.0 mph16.1 kmh 30.12 in1020.0 mb 0.00 in0.0 mm 0.00 in0.0 mm 0.00 in0.0 mm
10:35 PM 74.2°F23.4°C 64.5°F18.1°C 72% 7.0 mph SE11.3 kmh SE 10.0 mph16.1 kmh 30.12 in1020.0 mb 0.00 in0.0 mm 0.00 in0.0 mm 0.00 in0.0 mm
10:40 PM 74.2°F23.4°C 64.5°F18.1°C 72% 8.0 mph SE12.9 kmh SE 9.0 mph14.5 kmh 30.12 in1020.0 mb 0.00 in0.0 mm 0.00 in0.0 mm 0.00 in0.0 mm
10:45 PM 74.3°F23.5°C 64.6°F18.1°C 72% 4.0 mph SE6.4 kmh SE 11.0 mph17.7 kmh 30.12 in1020.0 mb 0.00 in0.0 mm 0.00 in0.0 mm 0.00 in0.0 mm
10:50 PM 74.6°F23.7°C 64.5°F18.1°C 71% 7.0 mph ESE11.3 kmh ESE 13.0 mph20.9 kmh 30.11 in1019.6 mb 0.00 in0.0 mm 0.00 in0.0 mm 0.00 in0.0 mm
10:55 PM 74.9°F23.8°C 64.4°F18.0°C 70% 3.0 mph ESE4.8 kmh ESE 12.0 mph19.3 kmh 30.11 in1019.6 mb 0.00 in0.0 mm 0.00 in0.0 mm 0.00 in0.0 mm
11:00 PM 74.9°F23.8°C 64.4°F18.0°C 70% 3.0 mph SE4.8 kmh SE 7.0 mph11.3 kmh 30.11 in1019.6 mb 0.00 in0.0 mm 0.00 in0.0 mm 0.00 in0.0 mm
11:05 PM 74.9°F23.8°C 64.4°F18.0°C 70% 5.0 mph SE8.0 kmh SE 7.0 mph11.3 kmh 30.11 in1019.6 mb 0.00 in0.0 mm 0.00 in0.0 mm 0.00 in0.0 mm
11:10 PM 74.9°F23.8°C 64.4°F18.0°C 70% 3.0 mph SE4.8 kmh SE 9.0 mph14.5 kmh 30.11 in1019.6 mb 0.00 in0.0 mm 0.00 in0.0 mm 0.00 in0.0 mm
11:15 PM 75.0°F23.9°C 64.5°F18.1°C 70% 1.0 mph E1.6 kmh E 11.0 mph17.7 kmh 30.11 in1019.6 mb 0.00 in0.0 mm 0.00 in0.0 mm 0.00 in0.0 mm
11:20 PM 74.9°F23.8°C 64.4°F18.0°C 70% 2.0 mph ESE3.2 kmh ESE 9.0 mph14.5 kmh 30.10 in1019.3 mb 0.00 in0.0 mm 0.00 in0.0 mm 0.00 in0.0 mm
11:25 PM 74.9°F23.8°C 64.4°F18.0°C 70% 9.0 mph SE14.5 kmh SE 11.0 mph17.7 kmh 30.10 in1019.3 mb 0.00 in0.0 mm 0.00 in0.0 mm 0.00 in0.0 mm
11:30 PM 75.0°F23.9°C 64.5°F18.1°C 70% Calm Calm 11.0 mph17.7 kmh 30.10 in1019.3 mb 0.00 in0.0 mm 0.00 in0.0 mm 0.00 in0.0 mm
11:35 PM 74.9°F23.8°C 64.4°F18.0°C 70% 1.0 mph SE1.6 kmh SE 4.0 mph6.4 kmh 30.10 in1019.3 mb 0.00 in0.0 mm 0.00 in0.0 mm 0.00 in0.0 mm
11:40 PM 74.8°F23.8°C 64.3°F17.9°C 70% 2.0 mph SE3.2 kmh SE 9.0 mph14.5 kmh 30.10 in1019.3 mb 0.00 in0.0 mm 0.00 in0.0 mm 0.00 in0.0 mm
11:45 PM 74.7°F23.7°C 64.2°F17.9°C 70% 3.0 mph SE4.8 kmh SE 11.0 mph17.7 kmh 30.10 in1019.3 mb 0.00 in0.0 mm 0.00 in0.0 mm 0.00 in0.0 mm
11:50 PM 74.6°F23.7°C 64.1°F17.8°C 70% 8.0 mph ESE12.9 kmh ESE 10.0 mph16.1 kmh 30.10 in1019.3 mb 0.00 in0.0 mm 0.00 in0.0 mm 0.00 in0.0 mm
11:55 PM 74.6°F23.7°C 64.1°F17.8°C 70% 2.0 mph E3.2 kmh E 11.0 mph17.7 kmh 30.10 in1019.3 mb 0.00 in0.0 mm 0.00 in0.0 mm 0.00 in0.0 mm